sensor_id;sensor_type;location;lat;lon;timestamp;temperature;humidity
12470;DHT22;36499;46.484;13.832;2023-01-29T00:01:36;-1.70;99.90
12470;DHT22;36499;46.484;13.832;2023-01-29T00:04:04;-1.70;99.90
12470;DHT22;36499;46.484;13.832;2023-01-29T00:06:31;-1.70;99.90
12470;DHT22;36499;46.484;13.832;2023-01-29T00:08:59;-1.70;99.90
12470;DHT22;36499;46.484;13.832;2023-01-29T00:11:26;-1.70;99.90
12470;DHT22;36499;46.484;13.832;2023-01-29T00:13:53;-1.70;99.90
12470;DHT22;36499;46.484;13.832;2023-01-29T00:16:20;-1.70;99.90
12470;DHT22;36499;46.484;13.832;2023-01-29T00:18:47;-1.70;99.90
12470;DHT22;36499;46.484;13.832;2023-01-29T00:21:17;-1.70;99.90
12470;DHT22;36499;46.484;13.832;2023-01-29T00:23:46;-1.80;99.90
12470;DHT22;36499;46.484;13.832;2023-01-29T00:26:14;-1.80;99.90
12470;DHT22;36499;46.484;13.832;2023-01-29T00:28:42;-1.80;99.90
12470;DHT22;36499;46.484;13.832;2023-01-29T00:31:11;-1.80;99.90
12470;DHT22;36499;46.484;13.832;2023-01-29T00:33:40;-1.80;99.90
12470;DHT22;36499;46.484;13.832;2023-01-29T00:36:09;-1.80;99.90
12470;DHT22;36499;46.484;13.832;2023-01-29T00:38:39;-1.80;99.90
12470;DHT22;36499;46.484;13.832;2023-01-29T00:41:07;-1.80;99.90
12470;DHT22;36499;46.484;13.832;2023-01-29T00:43:52;-1.80;99.90
12470;DHT22;36499;46.484;13.832;2023-01-29T00:46:37;-1.80;99.90
12470;DHT22;36499;46.484;13.832;2023-01-29T00:49:04;-1.80;99.90
12470;DHT22;36499;46.484;13.832;2023-01-29T00:51:32;-1.80;99.90
12470;DHT22;36499;46.484;13.832;2023-01-29T00:54:01;-1.80;99.90
12470;DHT22;36499;46.484;13.832;2023-01-29T00:56:29;-1.80;99.90
12470;DHT22;36499;46.484;13.832;2023-01-29T00:58:56;-1.80;99.90
12470;DHT22;36499;46.484;13.832;2023-01-29T01:01:23;-1.80;99.90
12470;DHT22;36499;46.484;13.832;2023-01-29T01:04:05;-1.80;99.90
12470;DHT22;36499;46.484;13.832;2023-01-29T01:06:32;-1.80;99.90
12470;DHT22;36499;46.484;13.832;2023-01-29T01:09:01;-1.80;99.90
12470;DHT22;36499;46.484;13.832;2023-01-29T01:11:45;-1.80;99.90
12470;DHT22;36499;46.484;13.832;2023-01-29T01:14:12;-1.80;99.90
12470;DHT22;36499;46.484;13.832;2023-01-29T01:16:40;-1.80;99.90
12470;DHT22;36499;46.484;13.832;2023-01-29T01:19:07;-1.80;99.90
12470;DHT22;36499;46.484;13.832;2023-01-29T01:21:34;-1.80;99.90
12470;DHT22;36499;46.484;13.832;2023-01-29T01:24:03;-1.80;99.90
12470;DHT22;36499;46.484;13.832;2023-01-29T01:26:30;-1.70;99.90
12470;DHT22;36499;46.484;13.832;2023-01-29T01:28:58;-1.70;99.90
12470;DHT22;36499;46.484;13.832;2023-01-29T01:31:25;-1.80;99.90
12470;DHT22;36499;46.484;13.832;2023-01-29T01:33:53;-1.80;99.90
12470;DHT22;36499;46.484;13.832;2023-01-29T01:36:21;-1.80;99.90
12470;DHT22;36499;46.484;13.832;2023-01-29T01:38:48;-1.80;99.90
12470;DHT22;36499;46.484;13.832;2023-01-29T01:41:18;-1.80;99.90
12470;DHT22;36499;46.484;13.832;2023-01-29T01:43:52;-1.80;99.90
12470;DHT22;36499;46.484;13.832;2023-01-29T01:46:22;-1.80;99.90
12470;DHT22;36499;46.484;13.832;2023-01-29T01:48:55;-1.90;99.90
12470;DHT22;36499;46.484;13.832;2023-01-29T01:51:30;-1.80;99.90
12470;DHT22;36499;46.484;13.832;2023-01-29T01:54:04;-1.90;99.90
12470;DHT22;36499;46.484;13.832;2023-01-29T01:56:37;-1.90;99.90
12470;DHT22;36499;46.484;13.832;2023-01-29T01:59:11;-1.90;99.90
12470;DHT22;36499;46.484;13.832;2023-01-29T02:01:44;-1.90;99.90
12470;DHT22;36499;46.484;13.832;2023-01-29T02:04:16;-1.90;99.90
12470;DHT22;36499;46.484;13.832;2023-01-29T02:07:06;-1.80;99.90
12470;DHT22;36499;46.484;13.832;2023-01-29T02:09:57;-1.90;99.90
12470;DHT22;36499;46.484;13.832;2023-01-29T02:12:32;-1.90;99.90
12470;DHT22;36499;46.484;13.832;2023-01-29T02:15:01;-1.90;99.90
12470;DHT22;36499;46.484;13.832;2023-01-29T02:17:28;-1.90;99.90
12470;DHT22;36499;46.484;13.832;2023-01-29T02:20:02;-1.80;99.90
12470;DHT22;36499;46.484;13.832;2023-01-29T02:26:19;-1.80;99.90
12470;DHT22;36499;46.484;13.832;2023-01-29T02:29:22;-1.70;99.90
12470;DHT22;36499;46.484;13.832;2023-01-29T02:32:10;-1.70;99.90
12470;DHT22;36499;46.484;13.832;2023-01-29T02:34:51;-1.80;99.90
12470;DHT22;36499;46.484;13.832;2023-01-29T02:37:48;-1.70;99.90
12470;DHT22;36499;46.484;13.832;2023-01-29T02:40:27;-1.70;99.90
12470;DHT22;36499;46.484;13.832;2023-01-29T02:43:04;-1.70;99.90
12470;DHT22;36499;46.484;13.832;2023-01-29T02:45:43;-1.70;99.90
12470;DHT22;36499;46.484;13.832;2023-01-29T02:48:19;-1.80;99.90
12470;DHT22;36499;46.484;13.832;2023-01-29T02:50:56;-1.80;99.90
12470;DHT22;36499;46.484;13.832;2023-01-29T02:53:31;-1.80;99.90
12470;DHT22;36499;46.484;13.832;2023-01-29T02:56:09;-1.90;99.90
12470;DHT22;36499;46.484;13.832;2023-01-29T02:58:42;-1.90;99.90
12470;DHT22;36499;46.484;13.832;2023-01-29T03:01:17;-1.90;99.90
12470;DHT22;36499;46.484;13.832;2023-01-29T03:03:57;-1.90;99.90
12470;DHT22;36499;46.484;13.832;2023-01-29T03:06:32;-1.90;99.90
12470;DHT22;36499;46.484;13.832;2023-01-29T03:09:05;-2.00;99.90
12470;DHT22;36499;46.484;13.832;2023-01-29T03:11:41;-1.90;99.90
12470;DHT22;36499;46.484;13.832;2023-01-29T03:14:13;-1.90;99.90
12470;DHT22;36499;46.484;13.832;2023-01-29T03:16:49;-1.90;99.90
12470;DHT22;36499;46.484;13.832;2023-01-29T03:19:20;-1.90;99.90
12470;DHT22;36499;46.484;13.832;2023-01-29T03:21:57;-1.90;99.90
12470;DHT22;36499;46.484;13.832;2023-01-29T03:24:34;-2.00;99.90
12470;DHT22;36499;46.484;13.832;2023-01-29T03:27:27;-2.00;99.90
12470;DHT22;36499;46.484;13.832;2023-01-29T03:30:17;-2.00;99.90
12470;DHT22;36499;46.484;13.832;2023-01-29T03:33:05;-2.00;99.90
12470;DHT22;36499;46.484;13.832;2023-01-29T03:35:39;-2.00;99.90
12470;DHT22;36499;46.484;13.832;2023-01-29T03:38:14;-2.00;99.90
12470;DHT22;36499;46.484;13.832;2023-01-29T03:40:46;-2.00;99.90
12470;DHT22;36499;46.484;13.832;2023-01-29T03:43:25;-2.10;99.90
12470;DHT22;36499;46.484;13.832;2023-01-29T03:46:05;-2.10;99.90
12470;DHT22;36499;46.484;13.832;2023-01-29T03:48:40;-2.10;99.90
12470;DHT22;36499;46.484;13.832;2023-01-29T03:51:22;-2.00;99.90
12470;DHT22;36499;46.484;13.832;2023-01-29T03:54:02;-2.10;99.90
12470;DHT22;36499;46.484;13.832;2023-01-29T03:56:41;-2.10;99.90
12470;DHT22;36499;46.484;13.832;2023-01-29T03:59:30;-2.10;99.90
12470;DHT22;36499;46.484;13.832;2023-01-29T04:02:04;-2.10;99.90
12470;DHT22;36499;46.484;13.832;2023-01-29T04:04:39;-2.10;99.90
12470;DHT22;36499;46.484;13.832;2023-01-29T04:07:12;-2.10;99.90
12470;DHT22;36499;46.484;13.832;2023-01-29T04:09:46;-2.20;99.90
12470;DHT22;36499;46.484;13.832;2023-01-29T04:12:20;-2.20;99.90
12470;DHT22;36499;46.484;13.832;2023-01-29T04:14:53;-2.10;99.90
12470;DHT22;36499;46.484;13.832;2023-01-29T04:17:26;-2.10;99.90
12470;DHT22;36499;46.484;13.832;2023-01-29T04:19:59;-2.10;99.90
12470;DHT22;36499;46.484;13.832;2023-01-29T04:22:31;-2.10;99.90
12470;DHT22;36499;46.484;13.832;2023-01-29T04:25:03;-2.10;99.90
12470;DHT22;36499;46.484;13.832;2023-01-29T04:27:43;-2.10;99.90
12470;DHT22;36499;46.484;13.832;2023-01-29T04:30:22;-2.10;99.90
12470;DHT22;36499;46.484;13.832;2023-01-29T04:33:04;-2.10;99.90
12470;DHT22;36499;46.484;13.832;2023-01-29T04:35:47;-2.10;99.90
12470;DHT22;36499;46.484;13.832;2023-01-29T04:38:39;-2.10;99.90
12470;DHT22;36499;46.484;13.832;2023-01-29T04:41:21;-2.10;99.90
12470;DHT22;36499;46.484;13.832;2023-01-29T04:44:02;-2.10;99.90
12470;DHT22;36499;46.484;13.832;2023-01-29T04:46:42;-2.10;99.90
12470;DHT22;36499;46.484;13.832;2023-01-29T04:49:21;-2.10;99.90
12470;DHT22;36499;46.484;13.832;2023-01-29T04:52:00;-2.20;99.90
12470;DHT22;36499;46.484;13.832;2023-01-29T04:54:46;-2.20;99.90
12470;DHT22;36499;46.484;13.832;2023-01-29T04:57:25;-2.20;99.90
12470;DHT22;36499;46.484;13.832;2023-01-29T04:59:59;-2.20;99.90
12470;DHT22;36499;46.484;13.832;2023-01-29T05:02:32;-2.20;99.90
12470;DHT22;36499;46.484;13.832;2023-01-29T05:05:04;-2.20;99.90
12470;DHT22;36499;46.484;13.832;2023-01-29T05:07:35;-2.20;99.90
12470;DHT22;36499;46.484;13.832;2023-01-29T05:10:05;-2.20;99.90
12470;DHT22;36499;46.484;13.832;2023-01-29T05:12:36;-2.20;99.90
12470;DHT22;36499;46.484;13.832;2023-01-29T05:15:10;-2.20;99.90
12470;DHT22;36499;46.484;13.832;2023-01-29T05:17:41;-2.30;99.90
12470;DHT22;36499;46.484;13.832;2023-01-29T05:20:10;-2.30;99.90
12470;DHT22;36499;46.484;13.832;2023-01-29T05:22:41;-2.30;99.90
12470;DHT22;36499;46.484;13.832;2023-01-29T05:25:19;-2.30;99.90
12470;DHT22;36499;46.484;13.832;2023-01-29T05:27:49;-2.30;99.90
12470;DHT22;36499;46.484;13.832;2023-01-29T05:30:34;-2.30;99.90
12470;DHT22;36499;46.484;13.832;2023-01-29T05:33:03;-2.30;99.90
12470;DHT22;36499;46.484;13.832;2023-01-29T05:35:37;-2.30;99.90
12470;DHT22;36499;46.484;13.832;2023-01-29T05:38:05;-2.30;99.90
12470;DHT22;36499;46.484;13.832;2023-01-29T05:40:32;-2.30;99.90
12470;DHT22;36499;46.484;13.832;2023-01-29T05:42:59;-2.30;99.90
12470;DHT22;36499;46.484;13.832;2023-01-29T05:45:27;-2.30;99.90
12470;DHT22;36499;46.484;13.832;2023-01-29T05:47:55;-2.30;99.90
12470;DHT22;36499;46.484;13.832;2023-01-29T05:50:23;-2.30;99.90
12470;DHT22;36499;46.484;13.832;2023-01-29T05:52:55;-2.30;99.90
12470;DHT22;36499;46.484;13.832;2023-01-29T05:55:24;-2.20;99.90
12470;DHT22;36499;46.484;13.832;2023-01-29T05:57:52;-2.30;99.90
12470;DHT22;36499;46.484;13.832;2023-01-29T06:00:19;-2.30;99.90
12470;DHT22;36499;46.484;13.832;2023-01-29T06:02:46;-2.30;99.90
12470;DHT22;36499;46.484;13.832;2023-01-29T06:05:13;-2.30;99.90
12470;DHT22;36499;46.484;13.832;2023-01-29T06:07:41;-2.30;99.90
12470;DHT22;36499;46.484;13.832;2023-01-29T06:10:11;-2.30;99.90
12470;DHT22;36499;46.484;13.832;2023-01-29T06:12:40;-2.30;99.90
12470;DHT22;36499;46.484;13.832;2023-01-29T06:15:08;-2.30;99.90
12470;DHT22;36499;46.484;13.832;2023-01-29T06:17:36;-2.30;99.90
12470;DHT22;36499;46.484;13.832;2023-01-29T06:20:04;-2.30;99.90
12470;DHT22;36499;46.484;13.832;2023-01-29T06:22:32;-2.30;99.90
12470;DHT22;36499;46.484;13.832;2023-01-29T06:24:59;-2.30;99.90
12470;DHT22;36499;46.484;13.832;2023-01-29T06:27:26;-2.30;99.90
12470;DHT22;36499;46.484;13.832;2023-01-29T06:29:55;-2.30;99.90
12470;DHT22;36499;46.484;13.832;2023-01-29T06:32:22;-2.30;99.90
12470;DHT22;36499;46.484;13.832;2023-01-29T06:34:49;-2.40;99.90
12470;DHT22;36499;46.484;13.832;2023-01-29T06:37:17;-2.40;99.90
12470;DHT22;36499;46.484;13.832;2023-01-29T06:39:44;-2.40;99.90
12470;DHT22;36499;46.484;13.832;2023-01-29T06:42:11;-2.40;99.90
12470;DHT22;36499;46.484;13.832;2023-01-29T06:44:38;-2.40;99.90
12470;DHT22;36499;46.484;13.832;2023-01-29T06:47:07;-2.40;99.90
12470;DHT22;36499;46.484;13.832;2023-01-29T06:49:34;-2.40;99.90
12470;DHT22;36499;46.484;13.832;2023-01-29T06:52:01;-2.30;99.90
12470;DHT22;36499;46.484;13.832;2023-01-29T06:54:28;-2.30;99.90
12470;DHT22;36499;46.484;13.832;2023-01-29T06:56:55;-2.30;99.90
12470;DHT22;36499;46.484;13.832;2023-01-29T06:59:22;-2.30;99.90
12470;DHT22;36499;46.484;13.832;2023-01-29T07:01:49;-2.20;99.90
12470;DHT22;36499;46.484;13.832;2023-01-29T07:04:17;-2.20;99.90
12470;DHT22;36499;46.484;13.832;2023-01-29T07:06:44;-2.20;99.90
12470;DHT22;36499;46.484;13.832;2023-01-29T07:09:12;-2.20;99.90
12470;DHT22;36499;46.484;13.832;2023-01-29T07:11:39;-2.20;99.90
12470;DHT22;36499;46.484;13.832;2023-01-29T07:14:07;-2.10;99.90
12470;DHT22;36499;46.484;13.832;2023-01-29T07:16:34;-2.20;99.90
12470;DHT22;36499;46.484;13.832;2023-01-29T07:19:01;-2.20;99.90
12470;DHT22;36499;46.484;13.832;2023-01-29T07:21:29;-2.30;99.90
12470;DHT22;36499;46.484;13.832;2023-01-29T07:23:56;-2.30;99.90
12470;DHT22;36499;46.484;13.832;2023-01-29T07:26:23;-2.20;99.90
12470;DHT22;36499;46.484;13.832;2023-01-29T07:28:50;-2.20;99.90
12470;DHT22;36499;46.484;13.832;2023-01-29T07:31:17;-2.20;99.90
12470;DHT22;36499;46.484;13.832;2023-01-29T07:33:45;-2.20;99.90
12470;DHT22;36499;46.484;13.832;2023-01-29T07:36:12;-2.10;99.90
12470;DHT22;36499;46.484;13.832;2023-01-29T07:38:41;-2.10;99.90
12470;DHT22;36499;46.484;13.832;2023-01-29T07:41:10;-2.10;99.90
12470;DHT22;36499;46.484;13.832;2023-01-29T07:43:37;-2.10;99.90
12470;DHT22;36499;46.484;13.832;2023-01-29T07:46:04;-2.10;99.90
12470;DHT22;36499;46.484;13.832;2023-01-29T07:48:31;-2.00;99.90
12470;DHT22;36499;46.484;13.832;2023-01-29T07:50:59;-2.00;99.90
12470;DHT22;36499;46.484;13.832;2023-01-29T07:53:26;-2.10;99.90
12470;DHT22;36499;46.484;13.832;2023-01-29T07:55:56;-2.20;99.90
12470;DHT22;36499;46.484;13.832;2023-01-29T07:58:23;-2.30;99.90
12470;DHT22;36499;46.484;13.832;2023-01-29T08:00:50;-2.30;99.90
12470;DHT22;36499;46.484;13.832;2023-01-29T08:03:18;-2.30;99.90
12470;DHT22;36499;46.484;13.832;2023-01-29T08:05:46;-2.30;99.90
12470;DHT22;36499;46.484;13.832;2023-01-29T08:08:13;-2.30;99.90
12470;DHT22;36499;46.484;13.832;2023-01-29T08:10:41;-2.30;99.90
12470;DHT22;36499;46.484;13.832;2023-01-29T08:13:10;-2.30;99.90
12470;DHT22;36499;46.484;13.832;2023-01-29T08:15:37;-2.30;99.90
12470;DHT22;36499;46.484;13.832;2023-01-29T08:18:04;-2.40;99.90
12470;DHT22;36499;46.484;13.832;2023-01-29T08:20:31;-2.40;99.90
12470;DHT22;36499;46.484;13.832;2023-01-29T08:23:00;-2.40;99.90
12470;DHT22;36499;46.484;13.832;2023-01-29T08:25:28;-2.50;99.90
12470;DHT22;36499;46.484;13.832;2023-01-29T08:27:55;-2.50;99.90
12470;DHT22;36499;46.484;13.832;2023-01-29T08:30:25;-2.60;99.90
12470;DHT22;36499;46.484;13.832;2023-01-29T08:32:53;-2.60;99.90
12470;DHT22;36499;46.484;13.832;2023-01-29T08:35:20;-2.70;99.90
12470;DHT22;36499;46.484;13.832;2023-01-29T08:37:53;-2.70;99.90
12470;DHT22;36499;46.484;13.832;2023-01-29T08:40:23;-2.60;99.90
12470;DHT22;36499;46.484;13.832;2023-01-29T08:42:51;-2.60;99.90
12470;DHT22;36499;46.484;13.832;2023-01-29T08:45:18;-2.60;99.90
12470;DHT22;36499;46.484;13.832;2023-01-29T08:47:47;-2.50;99.90
12470;DHT22;36499;46.484;13.832;2023-01-29T08:50:15;-2.50;99.90
12470;DHT22;36499;46.484;13.832;2023-01-29T08:52:43;-2.50;99.90
12470;DHT22;36499;46.484;13.832;2023-01-29T08:55:11;-2.50;99.90
12470;DHT22;36499;46.484;13.832;2023-01-29T08:57:39;-2.50;99.90
12470;DHT22;36499;46.484;13.832;2023-01-29T09:00:07;-2.60;99.90
12470;DHT22;36499;46.484;13.832;2023-01-29T09:02:37;-2.10;99.90
12470;DHT22;36499;46.484;13.832;2023-01-29T09:05:06;-1.80;99.90
12470;DHT22;36499;46.484;13.832;2023-01-29T09:07:34;-1.50;99.90
12470;DHT22;36499;46.484;13.832;2023-01-29T09:10:02;-1.30;99.90
12470;DHT22;36499;46.484;13.832;2023-01-29T09:12:29;-1.40;99.90
12470;DHT22;36499;46.484;13.832;2023-01-29T09:14:56;-1.50;99.90
12470;DHT22;36499;46.484;13.832;2023-01-29T09:17:23;-1.70;99.90
12470;DHT22;36499;46.484;13.832;2023-01-29T09:19:50;-1.90;99.90
12470;DHT22;36499;46.484;13.832;2023-01-29T09:22:19;-2.00;99.90
12470;DHT22;36499;46.484;13.832;2023-01-29T09:24:46;-2.20;99.90
12470;DHT22;36499;46.484;13.832;2023-01-29T09:27:13;-2.20;99.90
12470;DHT22;36499;46.484;13.832;2023-01-29T09:29:40;-2.20;99.90
12470;DHT22;36499;46.484;13.832;2023-01-29T09:32:07;-2.00;99.90
12470;DHT22;36499;46.484;13.832;2023-01-29T09:34:35;-1.60;99.90
12470;DHT22;36499;46.484;13.832;2023-01-29T09:37:02;-1.20;99.90
12470;DHT22;36499;46.484;13.832;2023-01-29T09:39:30;-0.90;99.90
12470;DHT22;36499;46.484;13.832;2023-01-29T09:42:02;-0.50;99.90
12470;DHT22;36499;46.484;13.832;2023-01-29T09:44:48;-0.30;99.90
12470;DHT22;36499;46.484;13.832;2023-01-29T09:47:26;-0.20;99.90
12470;DHT22;36499;46.484;13.832;2023-01-29T09:49:57;-0.10;99.90
12470;DHT22;36499;46.484;13.832;2023-01-29T09:52:29;0.10;99.90
12470;DHT22;36499;46.484;13.832;2023-01-29T09:55:06;0.40;99.90
12470;DHT22;36499;46.484;13.832;2023-01-29T09:57:45;0.70;99.90
12470;DHT22;36499;46.484;13.832;2023-01-29T10:00:21;1.10;99.90
12470;DHT22;36499;46.484;13.832;2023-01-29T10:03:06;1.20;99.90
12470;DHT22;36499;46.484;13.832;2023-01-29T10:05:55;1.40;99.90
12470;DHT22;36499;46.484;13.832;2023-01-29T10:08:43;1.50;99.90
12470;DHT22;36499;46.484;13.832;2023-01-29T10:11:34;1.70;99.90
12470;DHT22;36499;46.484;13.832;2023-01-29T10:14:16;1.70;99.90
12470;DHT22;36499;46.484;13.832;2023-01-29T10:17:01;1.80;99.90
12470;DHT22;36499;46.484;13.832;2023-01-29T10:19:49;1.90;99.90
12470;DHT22;36499;46.484;13.832;2023-01-29T10:22:44;2.00;99.90
12470;DHT22;36499;46.484;13.832;2023-01-29T10:25:22;2.20;99.90
12470;DHT22;36499;46.484;13.832;2023-01-29T10:27:54;2.40;99.90
12470;DHT22;36499;46.484;13.832;2023-01-29T10:30:30;2.40;99.90
12470;DHT22;36499;46.484;13.832;2023-01-29T10:33:02;2.60;99.90
12470;DHT22;36499;46.484;13.832;2023-01-29T10:35:33;2.80;99.90
12470;DHT22;36499;46.484;13.832;2023-01-29T10:38:15;2.90;99.90
12470;DHT22;36499;46.484;13.832;2023-01-29T10:40:56;3.00;99.90
12470;DHT22;36499;46.484;13.832;2023-01-29T10:43:35;2.80;99.90
12470;DHT22;36499;46.484;13.832;2023-01-29T10:46:25;2.90;99.90
12470;DHT22;36499;46.484;13.832;2023-01-29T10:49:11;2.80;99.90
12470;DHT22;36499;46.484;13.832;2023-01-29T10:51:59;2.90;99.90
12470;DHT22;36499;46.484;13.832;2023-01-29T10:54:52;3.10;99.90
12470;DHT22;36499;46.484;13.832;2023-01-29T10:57:46;3.10;99.90
12470;DHT22;36499;46.484;13.832;2023-01-29T11:00:26;3.30;99.90
12470;DHT22;36499;46.484;13.832;2023-01-29T11:03:11;3.30;99.90
12470;DHT22;36499;46.484;13.832;2023-01-29T11:05:46;3.50;99.90
12470;DHT22;36499;46.484;13.832;2023-01-29T11:08:22;3.50;99.90
12470;DHT22;36499;46.484;13.832;2023-01-29T11:11:00;3.60;99.90
12470;DHT22;36499;46.484;13.832;2023-01-29T11:13:38;3.80;99.90
12470;DHT22;36499;46.484;13.832;2023-01-29T11:16:09;3.80;99.90
12470;DHT22;36499;46.484;13.832;2023-01-29T11:18:52;4.00;99.90
12470;DHT22;36499;46.484;13.832;2023-01-29T11:21:21;3.90;99.90
12470;DHT22;36499;46.484;13.832;2023-01-29T11:23:50;4.00;99.90
12470;DHT22;36499;46.484;13.832;2023-01-29T11:26:33;4.00;99.90
12470;DHT22;36499;46.484;13.832;2023-01-29T11:29:30;4.20;99.90
12470;DHT22;36499;46.484;13.832;2023-01-29T11:32:04;4.10;99.90
12470;DHT22;36499;46.484;13.832;2023-01-29T11:34:33;4.00;99.90
12470;DHT22;36499;46.484;13.832;2023-01-29T11:37:01;4.00;99.90
12470;DHT22;36499;46.484;13.832;2023-01-29T11:39:31;3.90;99.90
12470;DHT22;36499;46.484;13.832;2023-01-29T11:41:59;4.00;99.90
12470;DHT22;36499;46.484;13.832;2023-01-29T11:44:32;4.10;99.90
12470;DHT22;36499;46.484;13.832;2023-01-29T11:47:16;4.10;99.90
12470;DHT22;36499;46.484;13.832;2023-01-29T11:49:46;4.00;99.90
12470;DHT22;36499;46.484;13.832;2023-01-29T11:52:16;4.10;99.90
12470;DHT22;36499;46.484;13.832;2023-01-29T11:54:49;4.20;99.90
12470;DHT22;36499;46.484;13.832;2023-01-29T11:57:26;4.30;99.90
12470;DHT22;36499;46.484;13.832;2023-01-29T11:59:58;4.20;99.90
12470;DHT22;36499;46.484;13.832;2023-01-29T12:02:33;4.20;99.90
12470;DHT22;36499;46.484;13.832;2023-01-29T12:05:06;4.30;99.90
12470;DHT22;36499;46.484;13.832;2023-01-29T12:07:42;4.30;99.90
12470;DHT22;36499;46.484;13.832;2023-01-29T12:10:29;4.20;99.90
12470;DHT22;36499;46.484;13.832;2023-01-29T12:13:03;4.30;99.90
12470;DHT22;36499;46.484;13.832;2023-01-29T12:15:32;4.40;99.90
12470;DHT22;36499;46.484;13.832;2023-01-29T12:18:05;4.40;99.90
12470;DHT22;36499;46.484;13.832;2023-01-29T12:20:40;4.40;99.90
12470;DHT22;36499;46.484;13.832;2023-01-29T12:23:20;4.50;99.90
12470;DHT22;36499;46.484;13.832;2023-01-29T12:25:57;4.60;99.90
12470;DHT22;36499;46.484;13.832;2023-01-29T12:28:39;4.60;99.90
12470;DHT22;36499;46.484;13.832;2023-01-29T12:31:21;4.60;99.90
12470;DHT22;36499;46.484;13.832;2023-01-29T12:34:00;4.60;99.90
12470;DHT22;36499;46.484;13.832;2023-01-29T12:36:36;4.60;99.90
12470;DHT22;36499;46.484;13.832;2023-01-29T12:39:09;4.50;99.90
12470;DHT22;36499;46.484;13.832;2023-01-29T12:41:43;4.50;99.90
12470;DHT22;36499;46.484;13.832;2023-01-29T12:44:16;4.60;99.90
12470;DHT22;36499;46.484;13.832;2023-01-29T12:46:50;4.50;99.90
12470;DHT22;36499;46.484;13.832;2023-01-29T12:49:25;4.30;99.90
12470;DHT22;36499;46.484;13.832;2023-01-29T12:51:58;4.20;99.90
12470;DHT22;36499;46.484;13.832;2023-01-29T12:54:34;4.00;99.90
12470;DHT22;36499;46.484;13.832;2023-01-29T12:57:09;4.10;99.90
12470;DHT22;36499;46.484;13.832;2023-01-29T12:59:48;4.10;99.90
12470;DHT22;36499;46.484;13.832;2023-01-29T13:02:31;4.40;99.90
12470;DHT22;36499;46.484;13.832;2023-01-29T13:05:12;4.30;99.90
12470;DHT22;36499;46.484;13.832;2023-01-29T13:07:46;4.20;99.90
12470;DHT22;36499;46.484;13.832;2023-01-29T13:10:21;3.80;99.90
12470;DHT22;36499;46.484;13.832;2023-01-29T13:12:59;3.30;99.90
12470;DHT22;36499;46.484;13.832;2023-01-29T13:15:33;2.90;99.90
12470;DHT22;36499;46.484;13.832;2023-01-29T13:18:25;2.60;99.90
12470;DHT22;36499;46.484;13.832;2023-01-29T13:21:12;2.30;99.90
12470;DHT22;36499;46.484;13.832;2023-01-29T13:23:44;2.10;99.90
12470;DHT22;36499;46.484;13.832;2023-01-29T13:26:17;1.90;99.90
12470;DHT22;36499;46.484;13.832;2023-01-29T13:28:45;1.70;99.90
12470;DHT22;36499;46.484;13.832;2023-01-29T13:31:28;1.50;99.90
12470;DHT22;36499;46.484;13.832;2023-01-29T13:34:11;1.30;99.90
12470;DHT22;36499;46.484;13.832;2023-01-29T13:36:44;1.10;99.90
12470;DHT22;36499;46.484;13.832;2023-01-29T13:39:21;1.00;99.90
12470;DHT22;36499;46.484;13.832;2023-01-29T13:41:55;0.80;99.90
12470;DHT22;36499;46.484;13.832;2023-01-29T13:44:25;0.60;99.90
12470;DHT22;36499;46.484;13.832;2023-01-29T13:46:57;0.50;99.90
12470;DHT22;36499;46.484;13.832;2023-01-29T13:49:35;0.40;99.90
12470;DHT22;36499;46.484;13.832;2023-01-29T13:52:23;0.30;99.90
12470;DHT22;36499;46.484;13.832;2023-01-29T13:54:58;0.20;99.90
12470;DHT22;36499;46.484;13.832;2023-01-29T13:57:52;0.10;99.90
12470;DHT22;36499;46.484;13.832;2023-01-29T14:00:51;0.00;99.90
12470;DHT22;36499;46.484;13.832;2023-01-29T14:03:55;-0.10;99.90
12470;DHT22;36499;46.484;13.832;2023-01-29T14:06:45;-0.10;99.90
12470;DHT22;36499;46.484;13.832;2023-01-29T14:12:43;-0.20;99.90
12470;DHT22;36499;46.484;13.832;2023-01-29T14:15:24;-0.30;99.90
12470;DHT22;36499;46.484;13.832;2023-01-29T14:18:13;-0.30;99.90
12470;DHT22;36499;46.484;13.832;2023-01-29T14:20:53;-0.30;99.90
12470;DHT22;36499;46.484;13.832;2023-01-29T14:23:33;-0.30;99.90
12470;DHT22;36499;46.484;13.832;2023-01-29T14:26:32;-0.40;99.90
12470;DHT22;36499;46.484;13.832;2023-01-29T14:29:19;-0.50;99.90
12470;DHT22;36499;46.484;13.832;2023-01-29T14:31:52;-0.50;99.90
12470;DHT22;36499;46.484;13.832;2023-01-29T14:34:27;-0.60;99.90
12470;DHT22;36499;46.484;13.832;2023-01-29T14:37:01;-0.60;99.90
12470;DHT22;36499;46.484;13.832;2023-01-29T14:39:43;-0.70;99.90
12470;DHT22;36499;46.484;13.832;2023-01-29T14:42:20;-0.70;99.90
12470;DHT22;36499;46.484;13.832;2023-01-29T14:45:06;-0.70;99.90
12470;DHT22;36499;46.484;13.832;2023-01-29T14:48:02;-0.70;99.90
12470;DHT22;36499;46.484;13.832;2023-01-29T14:50:53;-0.70;99.90
12470;DHT22;36499;46.484;13.832;2023-01-29T14:53:42;-0.70;99.90
12470;DHT22;36499;46.484;13.832;2023-01-29T14:56:28;-0.70;99.90
12470;DHT22;36499;46.484;13.832;2023-01-29T14:59:10;-0.80;99.90
12470;DHT22;36499;46.484;13.832;2023-01-29T15:01:46;-0.80;99.90
12470;DHT22;36499;46.484;13.832;2023-01-29T15:04:22;-0.90;99.90
12470;DHT22;36499;46.484;13.832;2023-01-29T15:06:58;-1.00;99.90
12470;DHT22;36499;46.484;13.832;2023-01-29T15:09:37;-1.10;99.90
12470;DHT22;36499;46.484;13.832;2023-01-29T15:12:20;-1.20;99.90
12470;DHT22;36499;46.484;13.832;2023-01-29T15:15:02;-1.20;99.90
12470;DHT22;36499;46.484;13.832;2023-01-29T15:17:40;-1.20;99.90
12470;DHT22;36499;46.484;13.832;2023-01-29T15:20:30;-1.20;99.90
12470;DHT22;36499;46.484;13.832;2023-01-29T15:22:59;-1.30;99.90
12470;DHT22;36499;46.484;13.832;2023-01-29T15:25:33;-1.40;99.90
12470;DHT22;36499;46.484;13.832;2023-01-29T15:28:03;-1.50;99.90
12470;DHT22;36499;46.484;13.832;2023-01-29T15:30:35;-1.50;99.90
12470;DHT22;36499;46.484;13.832;2023-01-29T15:33:07;-1.60;99.90
12470;DHT22;36499;46.484;13.832;2023-01-29T15:35:37;-1.60;99.90
12470;DHT22;36499;46.484;13.832;2023-01-29T15:38:13;-1.70;99.90
12470;DHT22;36499;46.484;13.832;2023-01-29T15:40:50;-1.80;99.90
12470;DHT22;36499;46.484;13.832;2023-01-29T15:43:22;-1.90;99.90
12470;DHT22;36499;46.484;13.832;2023-01-29T15:45:52;-2.00;99.90
12470;DHT22;36499;46.484;13.832;2023-01-29T15:48:28;-2.00;99.90
12470;DHT22;36499;46.484;13.832;2023-01-29T15:50:59;-2.10;99.90
12470;DHT22;36499;46.484;13.832;2023-01-29T15:53:33;-2.10;99.90
12470;DHT22;36499;46.484;13.832;2023-01-29T15:56:07;-2.20;99.90
12470;DHT22;36499;46.484;13.832;2023-01-29T15:58:35;-2.30;99.90
12470;DHT22;36499;46.484;13.832;2023-01-29T16:01:04;-2.40;99.90
12470;DHT22;36499;46.484;13.832;2023-01-29T16:03:33;-2.40;99.90
12470;DHT22;36499;46.484;13.832;2023-01-29T16:06:03;-2.50;99.90
12470;DHT22;36499;46.484;13.832;2023-01-29T16:08:33;-2.60;99.90
12470;DHT22;36499;46.484;13.832;2023-01-29T16:11:03;-2.60;99.90